sensor_id;sensor_type;location;lat;lon;timestamp;noise_LAeq;noise_LA_min;noise_LA_max;noise_LA01;noise_LA95
60503;Laerm;51448;51.660;5.824;2022-07-29T00:01:46;42.29;29.26;54.90;;
60503;Laerm;51448;51.660;5.824;2022-07-29T00:04:14;42.04;29.59;54.60;;
60503;Laerm;51448;51.660;5.824;2022-07-29T00:06:42;41.66;30.49;54.38;;
60503;Laerm;51448;51.660;5.824;2022-07-29T00:09:10;41.72;30.49;54.28;;
60503;Laerm;51448;51.660;5.824;2022-07-29T00:11:37;42.72;29.90;54.76;;
60503;Laerm;51448;51.660;5.824;2022-07-29T00:14:05;42.14;30.40;54.60;;
60503;Laerm;51448;51.660;5.824;2022-07-29T00:16:33;44.70;29.60;60.67;;
60503;Laerm;51448;51.660;5.824;2022-07-29T00:19:00;43.18;29.08;54.90;;
60503;Laerm;51448;51.660;5.824;2022-07-29T00:21:29;42.56;29.54;54.49;;
60503;Laerm;51448;51.660;5.824;2022-07-29T00:23:56;41.16;29.45;53.90;;
60503;Laerm;51448;51.660;5.824;2022-07-29T00:26:24;41.05;29.23;53.96;;
60503;Laerm;51448;51.660;5.824;2022-07-29T00:28:52;42.72;29.44;55.05;;
60503;Laerm;51448;51.660;5.824;2022-07-29T00:31:39;40.12;29.02;53.61;;
60503;Laerm;51448;51.660;5.824;2022-07-29T00:34:07;41.35;29.60;53.91;;
60503;Laerm;51448;51.660;5.824;2022-07-29T00:36:54;40.07;29.05;53.67;;
60503;Laerm;51448;51.660;5.824;2022-07-29T00:39:22;41.94;29.42;54.02;;
60503;Laerm;51448;51.660;5.824;2022-07-29T00:41:50;43.73;29.56;56.84;;
60503;Laerm;51448;51.660;5.824;2022-07-29T00:44:17;41.94;29.09;54.36;;
60503;Laerm;51448;51.660;5.824;2022-07-29T00:46:45;48.80;30.56;59.99;;
60503;Laerm;51448;51.660;5.824;2022-07-29T00:49:13;49.18;41.38;57.61;;
60503;Laerm;51448;51.660;5.824;2022-07-29T00:51:40;52.26;38.79;59.74;;
60503;Laerm;51448;51.660;5.824;2022-07-29T00:54:08;48.70;41.11;56.67;;
60503;Laerm;51448;51.660;5.824;2022-07-29T00:56:36;47.44;41.31;61.87;;
60503;Laerm;51448;51.660;5.824;2022-07-29T00:59:03;46.71;39.00;63.22;;
60503;Laerm;51448;51.660;5.824;2022-07-29T01:01:30;45.77;35.07;58.63;;
60503;Laerm;51448;51.660;5.824;2022-07-29T01:03:58;54.59;40.11;66.85;;
60503;Laerm;51448;51.660;5.824;2022-07-29T01:06:26;52.13;44.50;63.15;;
60503;Laerm;51448;51.660;5.824;2022-07-29T01:08:55;50.68;42.68;62.56;;
60503;Laerm;51448;51.660;5.824;2022-07-29T01:11:23;51.70;44.18;62.17;;
60503;Laerm;51448;51.660;5.824;2022-07-29T01:13:52;54.32;48.00;63.50;;
60503;Laerm;51448;51.660;5.824;2022-07-29T01:16:33;57.30;52.17;67.19;;
60503;Laerm;51448;51.660;5.824;2022-07-29T01:19:44;54.43;47.59;62.72;;
60503;Laerm;51448;51.660;5.824;2022-07-29T01:22:24;52.36;46.95;64.74;;
60503;Laerm;51448;51.660;5.824;2022-07-29T01:25:08;55.59;47.80;72.14;;
60503;Laerm;51448;51.660;5.824;2022-07-29T01:30:33;54.63;47.59;66.53;;
60503;Laerm;51448;51.660;5.824;2022-07-29T01:33:07;53.20;47.80;60.78;;
60503;Laerm;51448;51.660;5.824;2022-07-29T01:35:41;52.77;48.58;63.43;;
60503;Laerm;51448;51.660;5.824;2022-07-29T01:38:17;56.51;49.89;67.44;;
60503;Laerm;51448;51.660;5.824;2022-07-29T01:40:51;55.79;51.39;69.13;;
60503;Laerm;51448;51.660;5.824;2022-07-29T01:43:27;59.88;51.74;69.03;;
60503;Laerm;51448;51.660;5.824;2022-07-29T01:46:04;53.45;44.56;70.70;;
60503;Laerm;51448;51.660;5.824;2022-07-29T01:48:47;46.91;36.19;59.62;;
60503;Laerm;51448;51.660;5.824;2022-07-29T01:51:33;49.25;39.85;63.46;;
60503;Laerm;51448;51.660;5.824;2022-07-29T01:54:12;46.06;36.89;61.80;;
60503;Laerm;51448;51.660;5.824;2022-07-29T01:56:43;47.81;39.12;60.28;;
60503;Laerm;51448;51.660;5.824;2022-07-29T01:59:12;47.67;38.50;58.27;;
60503;Laerm;51448;51.660;5.824;2022-07-29T02:01:42;48.29;42.33;60.85;;
60503;Laerm;51448;51.660;5.824;2022-07-29T02:04:12;47.10;40.73;60.23;;
60503;Laerm;51448;51.660;5.824;2022-07-29T02:07:03;49.16;42.52;63.50;;
60503;Laerm;51448;51.660;5.824;2022-07-29T02:09:35;54.29;48.19;63.26;;
60503;Laerm;51448;51.660;5.824;2022-07-29T02:12:07;56.68;52.40;67.62;;
60503;Laerm;51448;51.660;5.824;2022-07-29T02:14:40;60.77;53.97;73.95;;
60503;Laerm;51448;51.660;5.824;2022-07-29T02:17:12;61.62;55.58;83.58;;
60503;Laerm;51448;51.660;5.824;2022-07-29T02:19:44;63.01;57.89;81.80;;
60503;Laerm;51448;51.660;5.824;2022-07-29T02:22:14;57.50;49.57;79.04;;
60503;Laerm;51448;51.660;5.824;2022-07-29T02:24:44;51.65;43.98;62.22;;
60503;Laerm;51448;51.660;5.824;2022-07-29T02:27:15;47.31;39.73;64.06;;
60503;Laerm;51448;51.660;5.824;2022-07-29T02:29:49;47.95;39.56;69.59;;
60503;Laerm;51448;51.660;5.824;2022-07-29T02:32:19;45.98;35.34;58.73;;
60503;Laerm;51448;51.660;5.824;2022-07-29T02:34:48;45.81;33.31;59.64;;
60503;Laerm;51448;51.660;5.824;2022-07-29T02:37:18;43.57;32.32;63.78;;
60503;Laerm;51448;51.660;5.824;2022-07-29T02:39:52;47.27;31.91;62.48;;
60503;Laerm;51448;51.660;5.824;2022-07-29T02:42:23;44.76;31.22;62.96;;
60503;Laerm;51448;51.660;5.824;2022-07-29T02:44:54;45.01;31.74;65.56;;
60503;Laerm;51448;51.660;5.824;2022-07-29T02:47:30;43.70;31.20;63.67;;
60503;Laerm;51448;51.660;5.824;2022-07-29T02:50:19;44.20;31.34;60.66;;
60503;Laerm;51448;51.660;5.824;2022-07-29T02:52:57;45.12;31.66;58.08;;
60503;Laerm;51448;51.660;5.824;2022-07-29T02:55:37;44.55;31.74;60.98;;
60503;Laerm;51448;51.660;5.824;2022-07-29T02:58:31;44.56;30.99;59.35;;
60503;Laerm;51448;51.660;5.824;2022-07-29T03:01:04;45.51;32.02;60.12;;
60503;Laerm;51448;51.660;5.824;2022-07-29T03:03:37;43.56;31.67;55.15;;
60503;Laerm;51448;51.660;5.824;2022-07-29T03:06:12;45.20;31.49;56.94;;
60503;Laerm;51448;51.660;5.824;2022-07-29T03:09:01;45.35;31.31;56.90;;
60503;Laerm;51448;51.660;5.824;2022-07-29T03:11:29;45.27;30.56;55.67;;
60503;Laerm;51448;51.660;5.824;2022-07-29T03:14:18;43.99;31.04;55.61;;
60503;Laerm;51448;51.660;5.824;2022-07-29T03:16:48;44.63;31.60;55.66;;
60503;Laerm;51448;51.660;5.824;2022-07-29T03:19:18;47.53;33.27;59.92;;
60503;Laerm;51448;51.660;5.824;2022-07-29T03:21:46;44.18;32.03;55.29;;
60503;Laerm;51448;51.660;5.824;2022-07-29T03:24:35;45.20;31.46;56.81;;
60503;Laerm;51448;51.660;5.824;2022-07-29T03:27:04;44.80;31.89;55.65;;
60503;Laerm;51448;51.660;5.824;2022-07-29T03:29:32;49.05;32.00;62.44;;
60503;Laerm;51448;51.660;5.824;2022-07-29T03:32:04;48.11;31.76;63.99;;
60503;Laerm;51448;51.660;5.824;2022-07-29T03:34:37;46.63;32.13;62.32;;
60503;Laerm;51448;51.660;5.824;2022-07-29T03:37:06;44.08;31.54;54.93;;
60503;Laerm;51448;51.660;5.824;2022-07-29T03:39:40;47.34;32.23;66.57;;
60503;Laerm;51448;51.660;5.824;2022-07-29T03:42:13;45.56;31.11;55.97;;
60503;Laerm;51448;51.660;5.824;2022-07-29T03:44:48;44.67;32.06;55.49;;
60503;Laerm;51448;51.660;5.824;2022-07-29T03:47:23;45.01;31.24;55.90;;
60503;Laerm;51448;51.660;5.824;2022-07-29T03:50:15;46.18;30.76;61.31;;
60503;Laerm;51448;51.660;5.824;2022-07-29T03:52:43;48.70;32.11;63.48;;
60503;Laerm;51448;51.660;5.824;2022-07-29T03:55:12;46.25;31.37;65.49;;
60503;Laerm;51448;51.660;5.824;2022-07-29T03:57:42;46.50;31.36;61.28;;
60503;Laerm;51448;51.660;5.824;2022-07-29T04:00:10;50.02;31.52;66.49;;
60503;Laerm;51448;51.660;5.824;2022-07-29T04:02:42;46.27;34.04;58.06;;
60503;Laerm;51448;51.660;5.824;2022-07-29T04:05:16;48.88;34.84;62.12;;
60503;Laerm;51448;51.660;5.824;2022-07-29T04:07:47;46.79;34.58;56.78;;
60503;Laerm;51448;51.660;5.824;2022-07-29T04:10:16;55.13;35.40;70.24;;
60503;Laerm;51448;51.660;5.824;2022-07-29T04:12:56;48.06;34.24;62.14;;
60503;Laerm;51448;51.660;5.824;2022-07-29T04:15:23;46.72;34.47;58.31;;
60503;Laerm;51448;51.660;5.824;2022-07-29T04:17:51;46.98;34.82;62.70;;
60503;Laerm;51448;51.660;5.824;2022-07-29T04:20:19;49.83;34.77;69.35;;
60503;Laerm;51448;51.660;5.824;2022-07-29T04:22:46;50.91;34.37;75.68;;
60503;Laerm;51448;51.660;5.824;2022-07-29T04:25:14;52.76;35.11;73.78;;
60503;Laerm;51448;51.660;5.824;2022-07-29T04:27:41;48.36;35.06;64.19;;
60503;Laerm;51448;51.660;5.824;2022-07-29T04:30:28;47.20;34.05;58.01;;
60503;Laerm;51448;51.660;5.824;2022-07-29T04:32:56;54.79;37.27;69.95;;
60503;Laerm;51448;51.660;5.824;2022-07-29T04:35:24;47.81;34.81;65.13;;
60503;Laerm;51448;51.660;5.824;2022-07-29T04:37:52;50.99;34.62;61.39;;
60503;Laerm;51448;51.660;5.824;2022-07-29T04:40:20;48.25;35.00;61.64;;
60503;Laerm;51448;51.660;5.824;2022-07-29T04:42:47;50.18;35.43;64.55;;
60503;Laerm;51448;51.660;5.824;2022-07-29T04:45:15;48.90;34.46;59.78;;
60503;Laerm;51448;51.660;5.824;2022-07-29T04:47:49;49.79;35.21;59.32;;
60503;Laerm;51448;51.660;5.824;2022-07-29T04:50:17;49.09;35.77;59.77;;
60503;Laerm;51448;51.660;5.824;2022-07-29T04:52:44;49.35;34.96;60.87;;
60503;Laerm;51448;51.660;5.824;2022-07-29T04:55:12;49.67;35.23;69.34;;
60503;Laerm;51448;51.660;5.824;2022-07-29T04:57:39;52.05;36.04;74.53;;
60503;Laerm;51448;51.660;5.824;2022-07-29T05:00:08;48.15;32.81;58.04;;
60503;Laerm;51448;51.660;5.824;2022-07-29T05:02:36;50.51;33.62;69.15;;
60503;Laerm;51448;51.660;5.824;2022-07-29T05:05:04;50.66;32.25;78.45;;
60503;Laerm;51448;51.660;5.824;2022-07-29T05:07:32;52.11;33.01;64.17;;
60503;Laerm;51448;51.660;5.824;2022-07-29T05:09:59;49.42;32.61;61.22;;
60503;Laerm;51448;51.660;5.824;2022-07-29T05:12:27;50.90;32.73;62.71;;
60503;Laerm;51448;51.660;5.824;2022-07-29T05:14:57;48.35;33.79;61.24;;
60503;Laerm;51448;51.660;5.824;2022-07-29T05:17:25;51.28;32.83;63.06;;
60503;Laerm;51448;51.660;5.824;2022-07-29T05:19:54;50.15;32.58;72.14;;
60503;Laerm;51448;51.660;5.824;2022-07-29T05:22:24;51.16;33.43;64.81;;
60503;Laerm;51448;51.660;5.824;2022-07-29T05:24:52;51.91;33.56;66.91;;
60503;Laerm;51448;51.660;5.824;2022-07-29T05:27:19;50.09;33.06;62.77;;
60503;Laerm;51448;51.660;5.824;2022-07-29T05:29:47;47.48;33.03;61.24;;
60503;Laerm;51448;51.660;5.824;2022-07-29T05:32:14;50.88;32.54;73.26;;
60503;Laerm;51448;51.660;5.824;2022-07-29T05:34:42;50.62;32.74;60.15;;
60503;Laerm;51448;51.660;5.824;2022-07-29T05:37:19;50.02;32.35;62.35;;
60503;Laerm;51448;51.660;5.824;2022-07-29T05:39:47;51.06;33.63;66.73;;
60503;Laerm;51448;51.660;5.824;2022-07-29T05:42:25;49.53;34.38;62.49;;
60503;Laerm;51448;51.660;5.824;2022-07-29T05:44:53;49.27;34.10;59.93;;
60503;Laerm;51448;51.660;5.824;2022-07-29T05:47:21;50.02;33.78;58.83;;
60503;Laerm;51448;51.660;5.824;2022-07-29T05:49:49;49.91;34.02;74.57;;
60503;Laerm;51448;51.660;5.824;2022-07-29T05:52:17;52.06;34.66;67.30;;
60503;Laerm;51448;51.660;5.824;2022-07-29T05:54:45;48.71;33.85;63.94;;
60503;Laerm;51448;51.660;5.824;2022-07-29T05:57:17;52.69;34.61;68.27;;
60503;Laerm;51448;51.660;5.824;2022-07-29T05:59:46;50.10;33.03;61.90;;
60503;Laerm;51448;51.660;5.824;2022-07-29T06:02:14;48.91;34.37;60.79;;
60503;Laerm;51448;51.660;5.824;2022-07-29T06:04:41;46.04;33.54;58.32;;
60503;Laerm;51448;51.660;5.824;2022-07-29T06:07:09;52.24;34.15;67.15;;
60503;Laerm;51448;51.660;5.824;2022-07-29T06:09:38;55.18;34.74;68.78;;
60503;Laerm;51448;51.660;5.824;2022-07-29T06:12:06;53.49;35.53;66.38;;
60503;Laerm;51448;51.660;5.824;2022-07-29T06:14:34;49.87;35.71;61.13;;
60503;Laerm;51448;51.660;5.824;2022-07-29T06:17:02;47.39;34.88;58.23;;
60503;Laerm;51448;51.660;5.824;2022-07-29T06:19:35;51.11;34.98;62.78;;
60503;Laerm;51448;51.660;5.824;2022-07-29T06:22:04;49.92;35.15;61.81;;
60503;Laerm;51448;51.660;5.824;2022-07-29T06:24:31;47.25;35.47;59.09;;
60503;Laerm;51448;51.660;5.824;2022-07-29T06:26:59;48.80;35.02;61.13;;
60503;Laerm;51448;51.660;5.824;2022-07-29T06:29:26;46.17;34.57;60.80;;
60503;Laerm;51448;51.660;5.824;2022-07-29T06:31:55;49.51;35.78;60.29;;
60503;Laerm;51448;51.660;5.824;2022-07-29T06:34:22;50.28;35.00;65.63;;
60503;Laerm;51448;51.660;5.824;2022-07-29T06:36:50;47.36;35.11;57.30;;
60503;Laerm;51448;51.660;5.824;2022-07-29T06:39:20;46.36;33.23;58.31;;
60503;Laerm;51448;51.660;5.824;2022-07-29T06:41:49;47.14;34.46;60.36;;
60503;Laerm;51448;51.660;5.824;2022-07-29T06:44:18;49.44;33.26;62.87;;
60503;Laerm;51448;51.660;5.824;2022-07-29T06:46:51;51.93;34.98;66.99;;
60503;Laerm;51448;51.660;5.824;2022-07-29T06:55:48;50.40;35.84;63.20;;
60503;Laerm;51448;51.660;5.824;2022-07-29T06:58:16;49.35;35.43;62.00;;
60503;Laerm;51448;51.660;5.824;2022-07-29T07:00:56;47.12;35.12;59.54;;
60503;Laerm;51448;51.660;5.824;2022-07-29T07:03:24;47.52;34.63;68.76;;
60503;Laerm;51448;51.660;5.824;2022-07-29T07:05:53;49.60;35.28;60.82;;
60503;Laerm;51448;51.660;5.824;2022-07-29T07:08:22;48.71;35.49;57.47;;
60503;Laerm;51448;51.660;5.824;2022-07-29T07:10:52;52.22;35.73;68.20;;
60503;Laerm;51448;51.660;5.824;2022-07-29T07:13:19;50.79;35.08;65.52;;
60503;Laerm;51448;51.660;5.824;2022-07-29T07:15:47;48.66;35.36;67.18;;
60503;Laerm;51448;51.660;5.824;2022-07-29T07:18:16;48.83;34.71;60.69;;
60503;Laerm;51448;51.660;5.824;2022-07-29T07:20:44;49.09;34.98;58.59;;
60503;Laerm;51448;51.660;5.824;2022-07-29T07:23:12;48.02;34.75;62.33;;
60503;Laerm;51448;51.660;5.824;2022-07-29T07:25:40;48.54;35.02;62.12;;
60503;Laerm;51448;51.660;5.824;2022-07-29T07:28:07;44.89;34.69;54.44;;
60503;Laerm;51448;51.660;5.824;2022-07-29T07:30:35;48.04;33.99;63.48;;
60503;Laerm;51448;51.660;5.824;2022-07-29T07:33:03;47.27;34.47;57.08;;
60503;Laerm;51448;51.660;5.824;2022-07-29T07:35:30;45.84;33.65;56.98;;
60503;Laerm;51448;51.660;5.824;2022-07-29T07:37:58;49.63;34.94;62.47;;
60503;Laerm;51448;51.660;5.824;2022-07-29T07:40:26;49.43;35.59;63.04;;
60503;Laerm;51448;51.660;5.824;2022-07-29T07:42:53;49.49;36.40;59.80;;
60503;Laerm;51448;51.660;5.824;2022-07-29T07:45:21;50.39;34.49;61.88;;
60503;Laerm;51448;51.660;5.824;2022-07-29T07:47:49;50.36;35.04;61.49;;
60503;Laerm;51448;51.660;5.824;2022-07-29T07:50:16;51.09;33.91;64.12;;
60503;Laerm;51448;51.660;5.824;2022-07-29T07:52:54;63.77;34.98;82.89;;
60503;Laerm;51448;51.660;5.824;2022-07-29T07:55:25;65.96;41.38;80.41;;
60503;Laerm;51448;51.660;5.824;2022-07-29T07:57:54;51.91;33.36;63.10;;
60503;Laerm;51448;51.660;5.824;2022-07-29T08:00:22;47.40;33.14;64.73;;
60503;Laerm;51448;51.660;5.824;2022-07-29T08:02:50;49.49;33.38;63.56;;
60503;Laerm;51448;51.660;5.824;2022-07-29T08:05:18;50.68;33.80;67.70;;
60503;Laerm;51448;51.660;5.824;2022-07-29T08:07:47;50.11;33.25;63.75;;
60503;Laerm;51448;51.660;5.824;2022-07-29T08:10:16;52.60;34.24;64.52;;
60503;Laerm;51448;51.660;5.824;2022-07-29T08:13:05;47.86;33.44;64.99;;
60503;Laerm;51448;51.660;5.824;2022-07-29T08:15:33;50.97;34.00;67.97;;
60503;Laerm;51448;51.660;5.824;2022-07-29T08:18:03;47.09;32.82;59.32;;
60503;Laerm;51448;51.660;5.824;2022-07-29T08:20:36;45.36;33.34;60.60;;
60503;Laerm;51448;51.660;5.824;2022-07-29T08:23:07;53.27;33.09;68.40;;
60503;Laerm;51448;51.660;5.824;2022-07-29T08:25:36;53.77;34.15;73.12;;
60503;Laerm;51448;51.660;5.824;2022-07-29T08:28:06;48.80;33.70;75.83;;
60503;Laerm;51448;51.660;5.824;2022-07-29T08:30:35;44.66;32.72;57.95;;
60503;Laerm;51448;51.660;5.824;2022-07-29T08:33:03;48.04;33.24;68.07;;
60503;Laerm;51448;51.660;5.824;2022-07-29T08:35:30;52.32;33.77;67.78;;
60503;Laerm;51448;51.660;5.824;2022-07-29T08:38:02;44.96;32.70;66.73;;
60503;Laerm;51448;51.660;5.824;2022-07-29T08:40:31;49.32;33.84;64.41;;
60503;Laerm;51448;51.660;5.824;2022-07-29T08:43:07;64.82;33.55;84.78;;
60503;Laerm;51448;51.660;5.824;2022-07-29T08:45:55;50.23;33.39;64.58;;
60503;Laerm;51448;51.660;5.824;2022-07-29T08:48:24;47.31;34.66;57.42;;
60503;Laerm;51448;51.660;5.824;2022-07-29T08:50:56;59.59;35.07;76.36;;
60503;Laerm;51448;51.660;5.824;2022-07-29T08:53:28;45.51;31.24;59.18;;
60503;Laerm;51448;51.660;5.824;2022-07-29T08:55:56;51.71;32.42;68.19;;
60503;Laerm;51448;51.660;5.824;2022-07-29T08:58:26;55.11;36.05;70.64;;
60503;Laerm;51448;51.660;5.824;2022-07-29T09:00:55;46.45;33.40;62.11;;
60503;Laerm;51448;51.660;5.824;2022-07-29T09:03:30;60.05;32.29;76.36;;
60503;Laerm;51448;51.660;5.824;2022-07-29T09:06:03;57.65;33.28;71.81;;
60503;Laerm;51448;51.660;5.824;2022-07-29T09:08:32;48.57;32.89;61.97;;
60503;Laerm;51448;51.660;5.824;2022-07-29T09:11:03;48.19;33.02;66.00;;
60503;Laerm;51448;51.660;5.824;2022-07-29T09:13:32;50.37;32.20;64.76;;
60503;Laerm;51448;51.660;5.824;2022-07-29T09:16:00;50.88;32.64;70.87;;
60503;Laerm;51448;51.660;5.824;2022-07-29T09:18:43;50.41;33.78;69.18;;
60503;Laerm;51448;51.660;5.824;2022-07-29T09:21:13;45.97;32.56;62.11;;
60503;Laerm;51448;51.660;5.824;2022-07-29T09:26:32;47.39;32.84;60.91;;
60503;Laerm;51448;51.660;5.824;2022-07-29T09:29:09;61.00;33.48;79.84;;
60503;Laerm;51448;51.660;5.824;2022-07-29T09:31:41;56.30;33.69;69.73;;
60503;Laerm;51448;51.660;5.824;2022-07-29T09:34:10;45.60;32.13;59.04;;
60503;Laerm;51448;51.660;5.824;2022-07-29T09:36:47;46.08;31.78;64.19;;
60503;Laerm;51448;51.660;5.824;2022-07-29T09:42:01;49.47;33.43;66.43;;
60503;Laerm;51448;51.660;5.824;2022-07-29T09:44:48;48.87;31.86;66.17;;
60503;Laerm;51448;51.660;5.824;2022-07-29T09:47:19;51.98;33.25;69.33;;
60503;Laerm;51448;51.660;5.824;2022-07-29T09:49:58;57.03;32.40;77.58;;
60503;Laerm;51448;51.660;5.824;2022-07-29T09:53:34;50.41;32.35;71.07;;
60503;Laerm;51448;51.660;5.824;2022-07-29T09:56:03;45.04;31.97;71.34;;
60503;Laerm;51448;51.660;5.824;2022-07-29T09:59:05;47.03;32.65;62.03;;
60503;Laerm;51448;51.660;5.824;2022-07-29T10:01:54;46.38;31.56;65.91;;
60503;Laerm;51448;51.660;5.824;2022-07-29T10:04:42;50.61;32.29;79.55;;
60503;Laerm;51448;51.660;5.824;2022-07-29T10:07:10;47.57;33.72;59.91;;
60503;Laerm;51448;51.660;5.824;2022-07-29T10:09:52;47.77;33.08;65.06;;
60503;Laerm;51448;51.660;5.824;2022-07-29T10:12:20;49.82;31.85;72.16;;
60503;Laerm;51448;51.660;5.824;2022-07-29T10:14:49;46.24;31.22;67.20;;
60503;Laerm;51448;51.660;5.824;2022-07-29T10:17:18;52.22;33.05;68.59;;
60503;Laerm;51448;51.660;5.824;2022-07-29T10:19:48;48.67;34.74;66.90;;
60503;Laerm;51448;51.660;5.824;2022-07-29T10:22:16;50.26;33.32;67.12;;
60503;Laerm;51448;51.660;5.824;2022-07-29T10:25:04;54.07;32.56;82.22;;
60503;Laerm;51448;51.660;5.824;2022-07-29T10:27:32;55.83;33.82;83.36;;
60503;Laerm;51448;51.660;5.824;2022-07-29T10:30:04;49.21;32.00;69.87;;
60503;Laerm;51448;51.660;5.824;2022-07-29T10:35:37;45.61;31.23;62.48;;
60503;Laerm;51448;51.660;5.824;2022-07-29T10:38:50;46.02;31.25;65.66;;
60503;Laerm;51448;51.660;5.824;2022-07-29T10:41:39;60.08;32.23;74.38;;
60503;Laerm;51448;51.660;5.824;2022-07-29T10:44:22;45.31;30.42;63.39;;
60503;Laerm;51448;51.660;5.824;2022-07-29T10:46:52;44.88;31.52;58.43;;
60503;Laerm;51448;51.660;5.824;2022-07-29T10:49:25;43.70;31.02;66.88;;
60503;Laerm;51448;51.660;5.824;2022-07-29T10:52:08;44.13;31.21;57.60;;
60503;Laerm;51448;51.660;5.824;2022-07-29T10:57:33;45.30;31.52;60.29;;
60503;Laerm;51448;51.660;5.824;2022-07-29T11:00:30;45.53;31.10;69.54;;
60503;Laerm;51448;51.660;5.824;2022-07-29T11:02:59;47.10;32.77;60.65;;
60503;Laerm;51448;51.660;5.824;2022-07-29T11:05:55;44.46;30.82;66.94;;
60503;Laerm;51448;51.660;5.824;2022-07-29T11:08:26;47.11;31.47;58.46;;
60503;Laerm;51448;51.660;5.824;2022-07-29T11:13:52;49.80;30.78;66.19;;
60503;Laerm;51448;51.660;5.824;2022-07-29T11:16:23;47.89;32.46;67.93;;
60503;Laerm;51448;51.660;5.824;2022-07-29T11:21:42;60.50;34.85;75.05;;
60503;Laerm;51448;51.660;5.824;2022-07-29T11:24:29;47.54;32.14;63.49;;
60503;Laerm;51448;51.660;5.824;2022-07-29T11:27:19;68.42;32.97;88.55;;
60503;Laerm;51448;51.660;5.824;2022-07-29T11:29:51;47.53;32.25;59.31;;
60503;Laerm;51448;51.660;5.824;2022-07-29T11:32:21;43.18;31.33;55.61;;
60503;Laerm;51448;51.660;5.824;2022-07-29T11:37:47;43.86;32.02;59.31;;
60503;Laerm;51448;51.660;5.824;2022-07-29T11:40:34;43.58;30.93;59.08;;
60503;Laerm;51448;51.660;5.824;2022-07-29T11:43:03;44.27;30.42;64.37;;
60503;Laerm;51448;51.660;5.824;2022-07-29T11:45:46;52.55;33.22;73.65;;
60503;Laerm;51448;51.660;5.824;2022-07-29T11:48:18;46.79;33.10;68.33;;
60503;Laerm;51448;51.660;5.824;2022-07-29T11:50:58;42.95;31.53;62.26;;
60503;Laerm;51448;51.660;5.824;2022-07-29T11:53:27;44.97;30.56;64.86;;
60503;Laerm;51448;51.660;5.824;2022-07-29T11:56:00;43.78;31.52;56.59;;
60503;Laerm;51448;51.660;5.824;2022-07-29T11:58:30;43.69;31.91;56.58;;
60503;Laerm;51448;51.660;5.824;2022-07-29T12:00:59;45.72;31.83;56.19;;
60503;Laerm;51448;51.660;5.824;2022-07-29T12:03:31;45.77;33.87;54.94;;
60503;Laerm;51448;51.660;5.824;2022-07-29T12:06:12;43.84;31.09;59.91;;
60503;Laerm;51448;51.660;5.824;2022-07-29T12:08:42;44.00;30.51;56.42;;
60503;Laerm;51448;51.660;5.824;2022-07-29T12:11:18;43.06;31.05;54.18;;
60503;Laerm;51448;51.660;5.824;2022-07-29T12:13:51;49.70;30.95;63.81;;
60503;Laerm;51448;51.660;5.824;2022-07-29T12:16:20;42.90;31.37;55.89;;
60503;Laerm;51448;51.660;5.824;2022-07-29T12:18:58;47.28;32.65;72.49;;
60503;Laerm;51448;51.660;5.824;2022-07-29T12:21:27;43.82;31.30;59.97;;
60503;Laerm;51448;51.660;5.824;2022-07-29T12:23:56;43.26;31.29;54.42;;
60503;Laerm;51448;51.660;5.824;2022-07-29T12:26:35;45.45;31.36;58.25;;
60503;Laerm;51448;51.660;5.824;2022-07-29T12:29:03;45.15;32.60;58.23;;
60503;Laerm;51448;51.660;5.824;2022-07-29T12:31:38;47.02;32.04;64.09;;
60503;Laerm;51448;51.660;5.824;2022-07-29T12:34:14;45.39;31.89;55.24;;
60503;Laerm;51448;51.660;5.824;2022-07-29T12:36:44;46.86;31.92;61.49;;
60503;Laerm;51448;51.660;5.824;2022-07-29T12:39:11;43.00;30.88;61.46;;
60503;Laerm;51448;51.660;5.824;2022-07-29T12:41:39;41.92;30.88;54.62;;
60503;Laerm;51448;51.660;5.824;2022-07-29T12:44:07;45.84;31.38;60.22;;
60503;Laerm;51448;51.660;5.824;2022-07-29T12:46:35;48.01;30.97;64.31;;
60503;Laerm;51448;51.660;5.824;2022-07-29T12:49:04;47.19;31.46;61.67;;
60503;Laerm;51448;51.660;5.824;2022-07-29T12:51:35;45.39;35.17;57.40;;
60503;Laerm;51448;51.660;5.824;2022-07-29T12:54:09;42.24;34.32;58.55;;
60503;Laerm;51448;51.660;5.824;2022-07-29T12:56:39;44.17;36.48;54.46;;
60503;Laerm;51448;51.660;5.824;2022-07-29T12:59:20;45.39;32.94;65.27;;
60503;Laerm;51448;51.660;5.824;2022-07-29T13:01:51;48.34;32.68;61.02;;
60503;Laerm;51448;51.660;5.824;2022-07-29T13:04:31;44.05;31.25;55.91;;
60503;Laerm;51448;51.660;5.824;2022-07-29T13:07:05;47.20;31.91;72.99;;
60503;Laerm;51448;51.660;5.824;2022-07-29T13:09:41;48.18;32.36;76.84;;
60503;Laerm;51448;51.660;5.824;2022-07-29T13:12:12;38.94;31.80;64.05;;
60503;Laerm;51448;51.660;5.824;2022-07-29T13:14:47;46.29;31.42;63.55;;
60503;Laerm;51448;51.660;5.824;2022-07-29T13:17:22;51.97;32.67;68.13;;
60503;Laerm;51448;51.660;5.824;2022-07-29T13:20:08;46.31;31.86;59.67;;
60503;Laerm;51448;51.660;5.824;2022-07-29T13:22:41;45.30;32.04;58.40;;
60503;Laerm;51448;51.660;5.824;2022-07-29T13:25:09;44.29;32.60;60.06;;
60503;Laerm;51448;51.660;5.824;2022-07-29T13:27:38;44.88;30.85;58.81;;
60503;Laerm;51448;51.660;5.824;2022-07-29T13:30:08;44.32;31.79;57.49;;
60503;Laerm;51448;51.660;5.824;2022-07-29T13:32:36;46.81;31.74;70.31;;
60503;Laerm;51448;51.660;5.824;2022-07-29T13:35:07;42.95;31.77;57.44;;
60503;Laerm;51448;51.660;5.824;2022-07-29T13:37:36;44.32;32.32;58.86;;
60503;Laerm;51448;51.660;5.824;2022-07-29T13:40:09;44.99;31.90;57.19;;
60503;Laerm;51448;51.660;5.824;2022-07-29T13:42:38;55.20;32.47;69.15;;
60503;Laerm;51448;51.660;5.824;2022-07-29T13:45:09;48.20;31.62;61.44;;
60503;Laerm;51448;51.660;5.824;2022-07-29T13:47:38;47.69;34.76;65.22;;
60503;Laerm;51448;51.660;5.824;2022-07-29T13:50:07;42.54;32.48;53.95;;
60503;Laerm;51448;51.660;5.824;2022-07-29T13:52:37;42.13;33.06;60.91;;
60503;Laerm;51448;51.660;5.824;2022-07-29T13:55:06;51.76;33.42;69.29;;
60503;Laerm;51448;51.660;5.824;2022-07-29T13:57:34;48.30;32.44;66.17;;
60503;Laerm;51448;51.660;5.824;2022-07-29T14:00:02;44.11;31.84;62.84;;
60503;Laerm;51448;51.660;5.824;2022-07-29T14:02:34;43.40;32.85;59.64;;
60503;Laerm;51448;51.660;5.824;2022-07-29T14:05:02;42.64;34.27;60.35;;
60503;Laerm;51448;51.660;5.824;2022-07-29T14:07:35;44.08;31.92;55.89;;
60503;Laerm;51448;51.660;5.824;2022-07-29T14:10:03;45.10;36.25;56.72;;
60503;Laerm;51448;51.660;5.824;2022-07-29T14:12:32;45.84;36.55;67.40;;
60503;Laerm;51448;51.660;5.824;2022-07-29T14:15:00;45.02;36.67;56.11;;
60503;Laerm;51448;51.660;5.824;2022-07-29T14:17:28;47.11;37.31;61.52;;
60503;Laerm;51448;51.660;5.824;2022-07-29T14:19:55;52.16;38.30;67.65;;
60503;Laerm;51448;51.660;5.824;2022-07-29T14:22:23;54.55;38.75;69.59;;
60503;Laerm;51448;51.660;5.824;2022-07-29T14:24:53;51.55;37.47;67.20;;
60503;Laerm;51448;51.660;5.824;2022-07-29T14:27:21;49.73;38.23;60.13;;
60503;Laerm;51448;51.660;5.824;2022-07-29T14:30:06;39.93;30.99;61.21;;
60503;Laerm;51448;51.660;5.824;2022-07-29T14:32:34;53.08;32.24;74.56;;
60503;Laerm;51448;51.660;5.824;2022-07-29T14:35:02;43.16;33.44;61.25;;
60503;Laerm;51448;51.660;5.824;2022-07-29T14:37:30;54.17;33.07;66.17;;
60503;Laerm;51448;51.660;5.824;2022-07-29T14:40:09;56.38;35.33;66.75;;
60503;Laerm;51448;51.660;5.824;2022-07-29T14:42:37;57.85;38.27;64.99;;